createdAt,value
2022-08-19T00:00:09.378Z,78.90
2022-08-19T00:02:38.435Z,79.00
2022-08-19T00:05:21.247Z,78.70
2022-08-19T00:07:51.691Z,78.70
2022-08-19T00:10:21.578Z,78.60
2022-08-19T00:12:50.133Z,79.40
2022-08-19T00:15:21.828Z,80.00
2022-08-19T00:17:51.042Z,79.80
2022-08-19T00:20:23.117Z,79.40
2022-08-19T00:22:53.022Z,80.00
2022-08-19T00:25:29.862Z,80.00
2022-08-19T00:27:59.968Z,79.60
2022-08-19T00:30:28.527Z,79.40
2022-08-19T00:32:57.539Z,79.60
2022-08-19T00:35:28.324Z,80.10
2022-08-19T00:37:57.147Z,80.50
2022-08-19T00:40:26.017Z,81.30
2022-08-19T00:42:55.142Z,81.40
2022-08-19T00:45:26.400Z,81.50
2022-08-19T00:47:54.992Z,82.00
2022-08-19T00:50:24.723Z,82.00
2022-08-19T00:52:55.959Z,82.70
2022-08-19T00:55:26.903Z,82.70
2022-08-19T00:58:00.114Z,82.80
2022-08-19T01:00:30.351Z,83.50
2022-08-19T01:02:58.773Z,85.00
2022-08-19T01:05:29.783Z,84.40
2022-08-19T01:08:02.335Z,84.10
2022-08-19T01:10:36.627Z,83.90
2022-08-19T01:13:06.351Z,84.00
2022-08-19T01:15:40.271Z,84.40
2022-08-19T01:18:11.583Z,84.50
2022-08-19T01:20:42.268Z,84.70
2022-08-19T01:23:12.532Z,84.20
2022-08-19T01:25:45.861Z,83.70
2022-08-19T01:28:20.008Z,83.70
2022-08-19T01:31:08.227Z,83.20
2022-08-19T01:33:36.564Z,83.20
2022-08-19T01:36:12.029Z,82.50
2022-08-19T01:38:44.687Z,82.00
2022-08-19T01:41:14.264Z,82.10
2022-08-19T01:44:13.796Z,82.00
2022-08-19T01:46:31.367Z,82.20
2022-08-19T01:48:59.727Z,83.00
2022-08-19T01:51:28.546Z,82.80
2022-08-19T01:53:58.659Z,82.90
2022-08-19T01:56:27.663Z,83.10
2022-08-19T01:59:00.061Z,83.20
2022-08-19T02:01:28.854Z,83.00
2022-08-19T02:03:59.670Z,82.90
2022-08-19T02:06:27.859Z,82.80
2022-08-19T02:08:57.987Z,83.20
2022-08-19T02:11:29.254Z,84.50
2022-08-19T02:13:57.530Z,84.40
2022-08-19T02:16:26.345Z,85.20
2022-08-19T02:18:54.571Z,85.30
2022-08-19T02:21:24.475Z,84.70
2022-08-19T02:23:53.003Z,84.00
2022-08-19T02:26:23.033Z,83.10
2022-08-19T02:28:51.361Z,82.20
2022-08-19T02:31:23.391Z,82.50
2022-08-19T02:33:56.568Z,83.10
2022-08-19T02:36:26.847Z,82.50
2022-08-19T02:38:55.566Z,82.10
2022-08-19T02:41:28.077Z,81.70
2022-08-19T02:44:28.872Z,81.60
2022-08-19T02:46:47.925Z,81.50
2022-08-19T02:49:17.163Z,81.60
2022-08-19T02:51:47.713Z,81.70
2022-08-19T02:54:16.878Z,81.50
2022-08-19T02:56:47.493Z,81.80
2022-08-19T02:59:15.925Z,81.70
2022-08-19T03:01:44.400Z,81.80
2022-08-19T03:04:17.644Z,86.70
2022-08-19T03:06:48.697Z,83.80
2022-08-19T03:09:18.482Z,82.70
2022-08-19T03:11:48.615Z,82.10
2022-08-19T03:14:19.100Z,81.90
2022-08-19T03:16:49.196Z,81.50
2022-08-19T03:19:20.141Z,81.30
2022-08-19T03:21:49.031Z,81.10
2022-08-19T03:24:18.269Z,80.90
2022-08-19T03:26:50.230Z,80.60
2022-08-19T03:29:29.450Z,80.50
2022-08-19T03:31:58.896Z,81.50
2022-08-19T03:34:29.503Z,81.20
2022-08-19T03:36:59.978Z,85.60
2022-08-19T03:39:28.671Z,84.90
2022-08-19T03:42:32.082Z,83.50
2022-08-19T03:44:50.491Z,82.70
2022-08-19T03:47:18.704Z,82.20
2022-08-19T03:49:47.281Z,82.50
2022-08-19T03:52:16.636Z,82.90
2022-08-19T03:54:44.878Z,83.00
2022-08-19T03:57:14.547Z,82.90
2022-08-19T03:59:43.054Z,82.60
2022-08-19T04:02:13.334Z,82.90
2022-08-19T04:04:44.099Z,83.30
2022-08-19T04:07:16.682Z,83.40
2022-08-19T04:09:45.251Z,83.30
2022-08-19T04:12:15.913Z,83.40
2022-08-19T04:14:44.187Z,83.40
2022-08-19T04:17:13.970Z,83.50
2022-08-19T04:19:44.050Z,83.60
2022-08-19T04:22:13.591Z,83.20
2022-08-19T04:24:41.827Z,82.90
2022-08-19T04:27:10.144Z,82.90
2022-08-19T04:29:41.369Z,82.70
2022-08-19T04:32:10.153Z,82.60
2022-08-19T04:35:02.072Z,83.60
2022-08-19T04:37:35.700Z,82.40
2022-08-19T04:40:24.351Z,82.50
2022-08-19T04:42:52.717Z,82.50
2022-08-19T04:45:23.330Z,82.90
2022-08-19T04:47:58.322Z,82.90
2022-08-19T04:50:27.354Z,82.90
2022-08-19T04:52:57.715Z,83.00
2022-08-19T04:55:27.549Z,83.40
2022-08-19T04:57:55.870Z,83.50
2022-08-19T05:00:25.927Z,83.50
2022-08-19T05:02:54.395Z,84.00
2022-08-19T05:05:22.723Z,84.20
2022-08-19T05:07:50.998Z,83.70
2022-08-19T05:10:19.344Z,83.70
2022-08-19T05:12:47.551Z,83.70
2022-08-19T05:15:15.995Z,83.60
2022-08-19T05:18:05.581Z,83.70
2022-08-19T05:20:51.399Z,83.20
2022-08-19T05:23:22.845Z,83.00
2022-08-19T05:25:52.608Z,82.90
2022-08-19T05:28:21.085Z,83.10
2022-08-19T05:30:51.881Z,83.20
2022-08-19T05:33:21.525Z,83.50
2022-08-19T05:35:50.438Z,83.50
2022-08-19T05:38:19.299Z,83.30
2022-08-19T05:40:49.105Z,83.30
2022-08-19T05:43:18.516Z,83.90
2022-08-19T05:45:47.064Z,83.70
2022-08-19T05:48:15.883Z,83.70
2022-08-19T05:50:46.285Z,83.50
2022-08-19T05:53:17.362Z,83.00
2022-08-19T05:55:45.622Z,82.80
2022-08-19T05:58:14.035Z,82.40
2022-08-19T06:00:44.715Z,82.20
2022-08-19T06:03:13.455Z,81.80
2022-08-19T06:05:49.660Z,81.70
2022-08-19T06:08:33.744Z,82.30
2022-08-19T06:11:14.960Z,81.60
2022-08-19T06:13:43.141Z,81.30
2022-08-19T06:16:11.729Z,81.20
2022-08-19T06:18:39.882Z,81.70
2022-08-19T06:21:08.181Z,81.80
2022-08-19T06:23:37.686Z,82.10
2022-08-19T06:26:05.800Z,82.20
2022-08-19T06:28:34.523Z,82.30
2022-08-19T06:31:08.968Z,82.90
2022-08-19T06:33:38.345Z,82.70
2022-08-19T06:36:07.319Z,84.00
2022-08-19T06:38:36.836Z,83.50
2022-08-19T06:41:07.758Z,82.80
2022-08-19T06:43:37.081Z,82.50
2022-08-19T06:46:14.711Z,82.60
2022-08-19T06:48:45.709Z,82.30
2022-08-19T06:51:16.727Z,82.10
2022-08-19T06:56:20.048Z,81.90
2022-08-19T06:58:49.430Z,81.60
2022-08-19T07:01:17.664Z,81.70
2022-08-19T07:03:47.334Z,82.00
2022-08-19T07:06:43.186Z,82.30
2022-08-19T07:09:09.502Z,81.80
2022-08-19T07:11:38.198Z,82.50
2022-08-19T07:14:07.515Z,85.10
2022-08-19T07:16:48.790Z,83.40
2022-08-19T07:19:18.715Z,82.60
2022-08-19T07:21:50.930Z,82.50
2022-08-19T07:24:20.885Z,83.50
2022-08-19T07:26:51.605Z,83.80
2022-08-19T07:29:21.428Z,84.70
2022-08-19T07:31:57.050Z,83.50
2022-08-19T07:34:26.213Z,84.10
2022-08-19T07:36:55.104Z,83.10
2022-08-19T07:39:27.966Z,83.30
2022-08-19T07:41:57.863Z,82.80
2022-08-19T07:44:26.103Z,84.30
2022-08-19T07:46:57.798Z,83.70
2022-08-19T07:49:26.772Z,83.10
2022-08-19T07:51:57.901Z,82.00
2022-08-19T07:54:29.700Z,81.90
2022-08-19T07:56:58.825Z,82.00
2022-08-19T07:59:29.390Z,80.60
2022-08-19T08:01:58.442Z,80.30
2022-08-19T08:04:44.278Z,81.10
2022-08-19T08:07:31.472Z,82.60
2022-08-19T08:10:03.322Z,83.30
2022-08-19T08:12:35.761Z,82.40
2022-08-19T08:15:12.630Z,83.00
2022-08-19T08:17:49.513Z,83.20
2022-08-19T08:20:20.573Z,83.50
2022-08-19T08:23:07.533Z,84.10
2022-08-19T08:25:38.952Z,82.10
2022-08-19T08:28:08.637Z,79.10
2022-08-19T08:30:42.464Z,77.10
2022-08-19T08:33:13.871Z,76.80
2022-08-19T08:35:43.854Z,76.00
2022-08-19T08:38:12.253Z,74.70
2022-08-19T08:40:49.760Z,74.30
2022-08-19T08:43:32.245Z,74.30
2022-08-19T08:46:05.203Z,75.40
2022-08-19T08:48:45.410Z,74.20
2022-08-19T08:51:21.109Z,73.70
2022-08-19T08:53:55.972Z,75.30
2022-08-19T08:56:26.439Z,72.60
2022-08-19T08:59:02.351Z,73.70
2022-08-19T09:01:31.003Z,73.20
2022-08-19T09:04:03.055Z,73.90
2022-08-19T09:06:40.735Z,72.70
2022-08-19T09:09:18.996Z,73.70
2022-08-19T09:11:59.082Z,71.50
2022-08-19T09:14:52.547Z,71.30
2022-08-19T09:17:31.709Z,71.80
2022-08-19T09:20:05.564Z,71.50
2022-08-19T09:22:34.134Z,71.30
2022-08-19T09:25:02.548Z,70.50
2022-08-19T09:27:42.130Z,70.60
2022-08-19T09:30:24.824Z,71.50
2022-08-19T09:32:54.672Z,70.70
2022-08-19T09:35:24.324Z,71.10
2022-08-19T09:37:57.755Z,70.50
2022-08-19T09:40:30.093Z,69.10
2022-08-19T09:43:03.463Z,69.80
2022-08-19T09:45:38.588Z,69.20
2022-08-19T09:48:07.092Z,68.70
2022-08-19T09:50:36.010Z,68.30
2022-08-19T09:53:04.407Z,68.90
2022-08-19T09:55:35.319Z,68.40
2022-08-19T09:58:05.055Z,67.00
2022-08-19T10:00:33.388Z,69.70
2022-08-19T10:03:01.854Z,67.10
2022-08-19T10:05:50.337Z,64.80
2022-08-19T10:08:28.308Z,66.80
2022-08-19T10:10:58.883Z,64.70
2022-08-19T10:13:31.064Z,64.60
2022-08-19T10:16:06.176Z,62.50
2022-08-19T10:18:36.143Z,62.40
2022-08-19T10:21:09.652Z,64.20
2022-08-19T10:23:41.554Z,61.60
2022-08-19T10:26:10.228Z,61.60
2022-08-19T10:28:40.225Z,62.80
2022-08-19T10:31:14.827Z,63.20
2022-08-19T10:33:53.471Z,63.30
2022-08-19T10:36:24.683Z,64.10
2022-08-19T10:38:56.978Z,62.90
2022-08-19T10:41:30.128Z,64.10
2022-08-19T10:44:05.461Z,62.80
2022-08-19T10:46:35.464Z,63.40
2022-08-19T10:49:05.451Z,60.80
2022-08-19T10:51:51.910Z,59.90
2022-08-19T10:54:31.161Z,60.70
2022-08-19T10:57:00.716Z,59.90
2022-08-19T10:59:35.998Z,58.70
2022-08-19T11:02:05.924Z,60.50
2022-08-19T11:04:34.269Z,60.70
2022-08-19T11:07:04.509Z,63.40
2022-08-19T11:09:34.271Z,63.40
2022-08-19T11:12:04.905Z,63.40
2022-08-19T11:14:35.866Z,61.90
2022-08-19T11:17:05.651Z,62.50
2022-08-19T11:19:34.247Z,58.60
2022-08-19T11:22:04.067Z,58.90
2022-08-19T11:24:33.917Z,59.50
2022-08-19T11:27:08.510Z,58.70
2022-08-19T11:29:40.083Z,59.80
2022-08-19T11:32:10.711Z,60.70
2022-08-19T11:34:39.782Z,61.00
2022-08-19T11:37:09.981Z,60.10
2022-08-19T11:39:39.406Z,61.10
2022-08-19T11:42:23.024Z,58.90
2022-08-19T11:44:52.887Z,58.00
2022-08-19T11:47:21.622Z,58.60
2022-08-19T11:49:49.900Z,58.20
2022-08-19T11:52:18.259Z,57.20
2022-08-19T11:54:46.813Z,57.70
2022-08-19T11:57:17.719Z,56.90
2022-08-19T11:59:52.338Z,57.70
2022-08-19T12:02:21.193Z,59.10
2022-08-19T12:04:49.431Z,58.00
2022-08-19T12:07:17.812Z,56.80
2022-08-19T12:09:46.043Z,57.20
2022-08-19T12:12:17.642Z,56.20
2022-08-19T12:14:47.456Z,54.60
2022-08-19T12:17:17.267Z,56.10
2022-08-19T12:19:45.500Z,54.20
2022-08-19T12:22:13.628Z,53.80
2022-08-19T12:24:42.261Z,55.30
2022-08-19T12:27:12.615Z,53.80
2022-08-19T12:29:42.550Z,53.40
2022-08-19T12:32:11.992Z,56.70
2022-08-19T12:34:42.403Z,55.40
2022-08-19T12:37:12.002Z,54.20
2022-08-19T12:39:43.005Z,56.10
2022-08-19T12:42:12.004Z,55.10
2022-08-19T12:44:43.504Z,52.70
2022-08-19T12:47:15.293Z,52.80
2022-08-19T12:49:54.022Z,51.80
2022-08-19T12:52:24.819Z,51.40
2022-08-19T12:54:53.800Z,48.60
2022-08-19T12:57:32.078Z,48.20
2022-08-19T13:00:04.677Z,52.10
2022-08-19T13:02:38.610Z,54.20
2022-08-19T13:05:12.191Z,52.50
2022-08-19T13:07:42.276Z,50.90
2022-08-19T13:10:13.434Z,51.60
2022-08-19T13:12:42.886Z,50.90
2022-08-19T13:15:12.764Z,51.90
2022-08-19T13:17:43.846Z,51.20
2022-08-19T13:20:14.531Z,49.40
2022-08-19T13:22:43.332Z,49.00
2022-08-19T13:25:11.800Z,48.30
2022-08-19T13:27:40.911Z,48.10
2022-08-19T13:30:30.468Z,49.70
2022-08-19T13:33:16.135Z,49.00
2022-08-19T13:35:49.020Z,49.70
2022-08-19T13:38:19.764Z,50.00
2022-08-19T13:40:48.826Z,49.50
2022-08-19T13:43:22.864Z,49.10
2022-08-19T13:45:57.391Z,49.10
2022-08-19T13:48:27.767Z,49.00
2022-08-19T13:50:57.887Z,49.30
2022-08-19T13:53:26.572Z,48.40
2022-08-19T13:55:55.444Z,47.90
2022-08-19T13:58:24.629Z,49.90
2022-08-19T14:00:53.217Z,52.70
2022-08-19T14:03:21.544Z,57.60
2022-08-19T14:05:49.894Z,55.90
2022-08-19T14:08:19.615Z,61.10
2022-08-19T14:10:49.617Z,59.00
2022-08-19T14:13:20.588Z,57.50
2022-08-19T14:15:49.378Z,56.60
2022-08-19T14:18:18.800Z,57.30
2022-08-19T14:20:47.621Z,56.50
2022-08-19T14:23:16.222Z,57.70
2022-08-19T14:25:47.690Z,57.90
2022-08-19T14:28:15.925Z,55.80
2022-08-19T14:30:45.620Z,54.00
2022-08-19T14:33:14.920Z,55.70
2022-08-19T14:35:45.935Z,56.00
2022-08-19T14:38:22.127Z,55.60
2022-08-19T14:41:11.432Z,55.80
2022-08-19T14:43:40.277Z,56.10
2022-08-19T14:46:09.166Z,55.10
2022-08-19T14:48:40.935Z,55.10
2022-08-19T14:51:10.573Z,56.10
2022-08-19T14:53:38.863Z,57.60
2022-08-19T14:56:11.912Z,58.80
2022-08-19T14:58:41.304Z,59.50
2022-08-19T15:01:10.640Z,59.40
2022-08-19T15:03:38.978Z,57.60
2022-08-19T15:06:08.392Z,56.20
2022-08-19T15:08:42.567Z,56.20
2022-08-19T15:11:15.412Z,54.80
2022-08-19T15:13:45.015Z,54.70
2022-08-19T15:16:17.733Z,54.20
2022-08-19T15:18:47.772Z,54.00
2022-08-19T15:21:26.987Z,53.80
2022-08-19T15:23:56.739Z,53.10
2022-08-19T15:26:28.671Z,53.80
2022-08-19T15:28:56.982Z,53.70
2022-08-19T15:31:28.739Z,55.00
2022-08-19T15:33:58.803Z,54.60
2022-08-19T15:36:28.407Z,54.80
2022-08-19T15:38:56.994Z,55.50
2022-08-19T15:41:32.231Z,55.30
2022-08-19T15:44:03.875Z,56.00
2022-08-19T15:46:34.635Z,55.00
2022-08-19T15:49:03.450Z,43.20
2022-08-19T15:51:35.373Z,45.50
2022-08-19T15:54:05.107Z,42.70
2022-08-19T15:57:06.890Z,42.00
2022-08-19T15:59:53.851Z,40.90
2022-08-19T16:02:42.021Z,39.80
2022-08-19T16:05:30.168Z,38.40
2022-08-19T16:07:58.766Z,38.20
2022-08-19T16:10:28.153Z,37.40
2022-08-19T16:12:59.473Z,38.80
2022-08-19T16:15:28.479Z,37.70
2022-08-19T16:17:57.848Z,35.80
2022-08-19T16:20:27.871Z,36.40
2022-08-19T16:22:58.244Z,37.10
2022-08-19T16:25:29.353Z,35.40
2022-08-19T16:28:07.147Z,34.20
2022-08-19T16:30:37.682Z,35.50
2022-08-19T16:33:06.027Z,34.40
2022-08-19T16:35:34.321Z,35.10
2022-08-19T16:38:03.112Z,34.20
2022-08-19T16:40:31.327Z,34.80
2022-08-19T16:43:02.965Z,34.00
2022-08-19T16:45:31.584Z,33.50
2022-08-19T16:47:59.866Z,32.40
2022-08-19T16:50:47.729Z,32.30
2022-08-19T16:53:16.784Z,32.00
2022-08-19T16:55:45.279Z,32.40
2022-08-19T16:58:15.187Z,32.00
2022-08-19T17:00:43.729Z,31.40
2022-08-19T17:03:15.118Z,39.20
2022-08-19T17:05:44.375Z,44.30
2022-08-19T17:08:13.033Z,46.30
2022-08-19T17:10:45.690Z,47.90
2022-08-19T17:13:29.708Z,49.20
2022-08-19T17:15:58.836Z,49.40
2022-08-19T17:18:27.727Z,49.80
2022-08-19T17:21:01.136Z,50.00
2022-08-19T17:23:42.531Z,49.10
2022-08-19T17:26:18.082Z,49.90
2022-08-19T17:28:50.195Z,50.30
2022-08-19T17:31:21.339Z,49.00
2022-08-19T17:33:49.917Z,49.50
2022-08-19T17:36:18.655Z,50.80
2022-08-19T17:38:47.254Z,50.50
2022-08-19T17:41:15.475Z,50.30
2022-08-19T17:43:44.256Z,50.40
2022-08-19T17:46:17.977Z,50.50
2022-08-19T17:48:51.940Z,50.80
2022-08-19T17:51:23.426Z,52.00
2022-08-19T17:53:53.747Z,51.80
2022-08-19T17:56:23.514Z,52.20
2022-08-19T17:58:59.700Z,52.20
2022-08-19T18:01:52.335Z,51.80
2022-08-19T18:04:20.235Z,52.00
2022-08-19T18:06:52.992Z,51.50
2022-08-19T18:09:24.460Z,51.90
2022-08-19T18:11:54.258Z,52.40
2022-08-19T18:14:33.288Z,52.60
2022-08-19T18:17:09.103Z,52.50
2022-08-19T18:19:41.501Z,52.20
2022-08-19T18:22:12.887Z,53.60
2022-08-19T18:24:42.283Z,54.00
2022-08-19T18:27:11.023Z,53.40
2022-08-19T18:29:40.319Z,53.00
2022-08-19T18:32:13.525Z,52.60
2022-08-19T18:34:43.217Z,52.50
2022-08-19T18:37:11.828Z,52.40
2022-08-19T18:39:57.675Z,52.40
2022-08-19T18:42:44.093Z,52.70
2022-08-19T18:45:29.923Z,53.20
2022-08-19T18:48:27.407Z,52.80
2022-08-19T18:50:58.162Z,52.60
2022-08-19T18:53:28.096Z,53.00
2022-08-19T18:55:56.335Z,55.20
2022-08-19T18:58:26.627Z,54.20
2022-08-19T19:00:57.425Z,54.20
2022-08-19T19:03:28.276Z,54.20
2022-08-19T19:05:56.483Z,54.60
2022-08-19T19:08:26.888Z,54.60
2022-08-19T19:10:57.173Z,54.60
2022-08-19T19:13:29.288Z,55.00
2022-08-19T19:15:57.572Z,55.10
2022-08-19T19:18:27.420Z,56.30
2022-08-19T19:20:56.500Z,58.70
2022-08-19T19:23:25.589Z,60.20
2022-08-19T19:25:54.239Z,60.90
2022-08-19T19:28:25.402Z,59.70
2022-08-19T19:30:54.817Z,58.60
2022-08-19T19:33:23.075Z,58.10
2022-08-19T19:35:52.831Z,56.90
2022-08-19T19:38:21.097Z,57.00
2022-08-19T19:40:49.490Z,56.80
2022-08-19T19:43:18.394Z,56.90
2022-08-19T19:45:48.286Z,56.60
2022-08-19T19:48:16.714Z,56.20
2022-08-19T19:50:46.321Z,56.70
2022-08-19T19:53:24.423Z,56.90
2022-08-19T19:55:55.043Z,55.90
2022-08-19T19:58:29.168Z,55.60
2022-08-19T20:00:58.939Z,54.30
2022-08-19T20:03:27.536Z,54.40
2022-08-19T20:05:59.580Z,54.90
2022-08-19T20:08:47.992Z,55.40
2022-08-19T20:11:33.042Z,55.10
2022-08-19T20:14:05.784Z,55.30
2022-08-19T20:16:34.076Z,55.80
2022-08-19T20:19:04.170Z,56.50
2022-08-19T20:21:33.569Z,57.10
2022-08-19T20:24:09.712Z,57.10
2022-08-19T20:26:38.851Z,57.80
2022-08-19T20:29:13.600Z,57.80
2022-08-19T20:31:57.976Z,58.20
2022-08-19T20:34:28.732Z,58.20
2022-08-19T20:36:57.080Z,59.40
2022-08-19T20:39:26.712Z,58.80
2022-08-19T20:41:56.441Z,58.80
2022-08-19T20:44:25.823Z,58.60
2022-08-19T20:46:57.566Z,58.50
2022-08-19T20:49:27.640Z,58.70
2022-08-19T20:51:57.038Z,59.40
2022-08-19T20:54:27.542Z,60.80
2022-08-19T20:56:56.355Z,59.70
2022-08-19T20:59:25.827Z,58.90
2022-08-19T21:01:54.409Z,59.20
2022-08-19T21:04:23.162Z,58.40
2022-08-19T21:06:51.906Z,58.30
2022-08-19T21:09:20.390Z,58.80
2022-08-19T21:11:49.935Z,60.50
2022-08-19T21:14:19.565Z,59.50
2022-08-19T21:16:49.335Z,59.80
2022-08-19T21:19:20.923Z,58.80
2022-08-19T21:21:52.549Z,58.20
2022-08-19T21:24:20.802Z,57.90
2022-08-19T21:26:51.610Z,57.80
2022-08-19T21:29:20.347Z,57.80
2022-08-19T21:31:49.212Z,58.00
2022-08-19T21:34:18.496Z,57.40
2022-08-19T21:36:46.644Z,57.50
2022-08-19T21:39:14.850Z,57.90
2022-08-19T21:41:43.796Z,58.50
2022-08-19T21:44:13.677Z,58.60
2022-08-19T21:46:42.190Z,58.50
2022-08-19T21:49:10.358Z,58.70
2022-08-19T21:51:38.537Z,58.40
2022-08-19T21:54:06.813Z,58.40
2022-08-19T21:56:35.060Z,58.40
2022-08-19T21:59:03.307Z,58.20
2022-08-19T22:01:32.942Z,57.90
2022-08-19T22:04:01.411Z,58.40
2022-08-19T22:06:29.741Z,58.30
2022-08-19T22:08:57.961Z,58.00
2022-08-19T22:11:27.559Z,58.00
2022-08-19T22:13:56.578Z,58.40
2022-08-19T22:16:25.468Z,58.80
2022-08-19T22:18:55.051Z,59.00
2022-08-19T22:21:39.748Z,59.60
2022-08-19T22:24:10.020Z,59.70
2022-08-19T22:26:38.297Z,60.10
2022-08-19T22:29:07.137Z,60.00
2022-08-19T22:31:36.497Z,60.30
2022-08-19T22:34:07.539Z,60.30
2022-08-19T22:36:36.085Z,60.20
2022-08-19T22:39:04.967Z,60.50
2022-08-19T22:41:33.691Z,60.50
2022-08-19T22:44:02.024Z,61.00
2022-08-19T22:46:34.407Z,61.20
2022-08-19T22:49:02.606Z,61.50
2022-08-19T22:51:49.451Z,61.80
2022-08-19T22:54:18.063Z,61.90
2022-08-19T22:56:46.555Z,61.70
2022-08-19T22:59:14.947Z,61.70
2022-08-19T23:01:43.060Z,61.90
2022-08-19T23:04:11.735Z,62.20
2022-08-19T23:06:42.438Z,62.50
2022-08-19T23:09:17.456Z,62.70
2022-08-19T23:11:46.461Z,63.20
2022-08-19T23:14:17.689Z,64.30
2022-08-19T23:16:50.970Z,64.10
2022-08-19T23:19:19.859Z,64.60
2022-08-19T23:21:50.052Z,64.60
2022-08-19T23:24:18.309Z,64.80
2022-08-19T23:27:00.452Z,65.10
2022-08-19T23:29:46.069Z,65.00
2022-08-19T23:32:16.496Z,65.10
2022-08-19T23:34:45.684Z,65.00
2022-08-19T23:37:15.559Z,64.60
2022-08-19T23:39:45.265Z,64.20
2022-08-19T23:42:14.204Z,64.10
2022-08-19T23:44:52.010Z,64.40
2022-08-19T23:47:22.233Z,63.80
2022-08-19T23:49:50.705Z,63.90
2022-08-19T23:52:21.259Z,64.00
2022-08-19T23:54:49.653Z,64.40
2022-08-19T23:57:17.827Z,64.30
2022-08-19T23:59:46.515Z,64.20
